createdAt,value
2023-02-11T00:00:23.972Z,97035.00
2023-02-11T00:01:24.046Z,97037.00
2023-02-11T00:02:24.042Z,97035.00
2023-02-11T00:03:24.076Z,97034.00
2023-02-11T00:04:24.039Z,97037.00
2023-02-11T00:05:24.027Z,97035.00
2023-02-11T00:06:24.016Z,97040.00
2023-02-11T00:07:24.017Z,97035.00
2023-02-11T00:08:24.043Z,97037.00
2023-02-11T00:09:24.039Z,97034.00
2023-02-11T00:10:24.028Z,97032.00
2023-02-11T00:11:24.078Z,97034.00
2023-02-11T00:12:24.066Z,97032.00
2023-02-11T00:13:24.055Z,97032.00
2023-02-11T00:14:24.061Z,97030.00
2023-02-11T00:15:24.061Z,97030.00
2023-02-11T00:16:24.097Z,97030.00
2023-02-11T00:17:24.079Z,97030.00
2023-02-11T00:18:24.082Z,97028.00
2023-02-11T00:19:24.109Z,97030.00
2023-02-11T00:20:24.094Z,97030.00
2023-02-11T00:21:24.127Z,97032.00
2023-02-11T00:22:24.127Z,97034.00
2023-02-11T00:23:24.107Z,97034.00
2023-02-11T00:24:24.135Z,97035.00
2023-02-11T00:25:24.133Z,97037.00
2023-02-11T00:26:24.167Z,97037.00
2023-02-11T00:27:24.126Z,97035.00
2023-02-11T00:28:24.157Z,97034.00
2023-02-11T00:29:24.091Z,97035.00
2023-02-11T00:30:24.142Z,97032.00
2023-02-11T00:31:24.329Z,97030.00
2023-02-11T00:32:24.117Z,97030.00
2023-02-11T00:33:24.105Z,97032.00
2023-02-11T00:34:24.116Z,97028.00
2023-02-11T00:35:24.085Z,97030.00
2023-02-11T00:36:24.135Z,97028.00
2023-02-11T00:37:24.099Z,97028.00
2023-02-11T00:38:24.107Z,97028.00
2023-02-11T00:39:24.093Z,97032.00
2023-02-11T00:40:24.090Z,97028.00
2023-02-11T00:41:24.120Z,97028.00
2023-02-11T00:42:24.104Z,97034.00
2023-02-11T00:43:24.112Z,97032.00
2023-02-11T00:44:24.101Z,97032.00
2023-02-11T00:45:24.103Z,97032.00
2023-02-11T00:46:24.167Z,97030.00
2023-02-11T00:47:24.144Z,97028.00
2023-02-11T00:48:24.117Z,97028.00
2023-02-11T00:49:24.115Z,97028.00
2023-02-11T00:50:24.119Z,97026.00
2023-02-11T00:51:24.116Z,97030.00
2023-02-11T00:52:24.097Z,97035.00
2023-02-11T00:53:24.138Z,97037.00
2023-02-11T00:54:24.150Z,97034.00
2023-02-11T00:55:24.111Z,97034.00
2023-02-11T00:56:24.154Z,97032.00
2023-02-11T00:57:24.133Z,97032.00
2023-02-11T00:58:24.141Z,97032.00
2023-02-11T00:59:24.161Z,97030.00
2023-02-11T01:00:24.173Z,97030.00
2023-02-11T01:01:24.184Z,97026.00
2023-02-11T01:02:24.160Z,97028.00
2023-02-11T01:03:24.146Z,97028.00
2023-02-11T01:04:24.184Z,97026.00
2023-02-11T01:05:24.248Z,97024.00
2023-02-11T01:06:24.141Z,97028.00
2023-02-11T01:07:24.152Z,97024.00
2023-02-11T01:08:24.159Z,97024.00
2023-02-11T01:09:24.137Z,97024.00
2023-02-11T01:10:24.158Z,97026.00
2023-02-11T01:11:24.179Z,97024.00
2023-02-11T01:12:24.157Z,97024.00
2023-02-11T01:13:24.169Z,97026.00
2023-02-11T01:14:24.166Z,97026.00
2023-02-11T01:15:24.161Z,97026.00
2023-02-11T01:16:24.304Z,97024.00
2023-02-11T01:17:24.193Z,97024.00
2023-02-11T01:18:24.202Z,97026.00
2023-02-11T01:19:24.162Z,97026.00
2023-02-11T01:20:24.165Z,97022.00
2023-02-11T01:21:24.184Z,97018.00
2023-02-11T01:22:24.184Z,97016.00
2023-02-11T01:23:24.142Z,97018.00
2023-02-11T01:24:24.175Z,97010.00
2023-02-11T01:25:24.202Z,97014.00
2023-02-11T01:26:24.213Z,97016.00
2023-02-11T01:27:24.156Z,97012.00
2023-02-11T01:28:24.299Z,97014.00
2023-02-11T01:29:24.158Z,97014.00
2023-02-11T01:30:24.151Z,97010.00
2023-02-11T01:31:24.236Z,97008.00
2023-02-11T01:32:24.196Z,97008.00
2023-02-11T01:33:24.188Z,97008.00
2023-02-11T01:34:24.205Z,97010.00
2023-02-11T01:35:24.196Z,97012.00
2023-02-11T01:36:24.224Z,97010.00
2023-02-11T01:37:24.218Z,97008.00
2023-02-11T01:38:24.189Z,97008.00
2023-02-11T01:39:24.208Z,97004.00
2023-02-11T01:40:24.219Z,97004.00
2023-02-11T01:41:24.185Z,97002.00
2023-02-11T01:42:24.201Z,97002.00
2023-02-11T01:43:24.190Z,97006.00
2023-02-11T01:44:24.234Z,97002.00
2023-02-11T01:45:24.218Z,97002.00
2023-02-11T01:46:24.301Z,97000.00
2023-02-11T01:47:24.268Z,97000.00
2023-02-11T01:48:24.216Z,97000.00
2023-02-11T01:49:24.312Z,96998.00
2023-02-11T01:50:24.232Z,96996.00
2023-02-11T01:51:24.300Z,96995.00
2023-02-11T01:52:24.239Z,96995.00
2023-02-11T01:53:24.246Z,96993.00
2023-02-11T01:54:24.252Z,96996.00
2023-02-11T01:55:24.260Z,96998.00
2023-02-11T01:56:24.268Z,96998.00
2023-02-11T01:57:24.254Z,97000.00
2023-02-11T01:58:24.246Z,96995.00
2023-02-11T01:59:24.275Z,96995.00
2023-02-11T02:00:24.341Z,96993.00
2023-02-11T02:01:24.386Z,96995.00
2023-02-11T02:02:24.304Z,96995.00
2023-02-11T02:03:24.334Z,96993.00
2023-02-11T02:04:24.293Z,96990.00
2023-02-11T02:05:24.336Z,96990.00
2023-02-11T02:06:24.291Z,96993.00
2023-02-11T02:07:24.356Z,96988.00
2023-02-11T02:08:24.290Z,96981.00
2023-02-11T02:09:24.296Z,96979.00
2023-02-11T02:10:24.318Z,96979.00
2023-02-11T02:11:24.309Z,96979.00
2023-02-11T02:12:24.277Z,96979.00
2023-02-11T02:13:24.324Z,96976.00
2023-02-11T02:14:24.288Z,96976.00
2023-02-11T02:15:24.278Z,96976.00
2023-02-11T02:16:24.325Z,96974.00
2023-02-11T02:17:24.272Z,96973.00
2023-02-11T02:18:24.289Z,96971.00
2023-02-11T02:19:24.263Z,96973.00
2023-02-11T02:20:24.326Z,96973.00
2023-02-11T02:21:24.294Z,96973.00
2023-02-11T02:22:24.291Z,96969.00
2023-02-11T02:23:24.319Z,96971.00
2023-02-11T02:24:24.300Z,96971.00
2023-02-11T02:25:24.324Z,96969.00
2023-02-11T02:26:24.304Z,96969.00
2023-02-11T02:27:24.333Z,96967.00
2023-02-11T02:28:24.383Z,96969.00
2023-02-11T02:29:24.341Z,96967.00
2023-02-11T02:30:24.468Z,96963.00
2023-02-11T02:31:24.386Z,96965.00
2023-02-11T02:32:24.317Z,96961.00
2023-02-11T02:33:24.423Z,96961.00
2023-02-11T02:34:24.320Z,96961.00
2023-02-11T02:35:24.341Z,96961.00
2023-02-11T02:36:24.339Z,96961.00
2023-02-11T02:37:24.340Z,96957.00
2023-02-11T02:38:24.312Z,96957.00
2023-02-11T02:39:24.330Z,96959.00
2023-02-11T02:40:24.301Z,96955.00
2023-02-11T02:41:24.367Z,96957.00
2023-02-11T02:42:24.333Z,96959.00
2023-02-11T02:43:24.386Z,96961.00
2023-02-11T02:44:24.346Z,96957.00
2023-02-11T02:45:24.309Z,96959.00
2023-02-11T02:46:24.395Z,96959.00
2023-02-11T02:47:24.357Z,96961.00
2023-02-11T02:48:24.401Z,96963.00
2023-02-11T02:49:24.314Z,96961.00
2023-02-11T02:50:24.371Z,96959.00
2023-02-11T02:51:24.374Z,96961.00
2023-02-11T02:52:24.343Z,96963.00
2023-02-11T02:53:24.317Z,96957.00
2023-02-11T02:54:24.338Z,96957.00
2023-02-11T02:55:24.376Z,96957.00
2023-02-11T02:56:24.361Z,96957.00
2023-02-11T02:57:24.342Z,96959.00
2023-02-11T02:58:24.368Z,96957.00
2023-02-11T02:59:24.376Z,96955.00
2023-02-11T03:00:24.350Z,96955.00
2023-02-11T03:01:24.362Z,96955.00
2023-02-11T03:02:24.343Z,96955.00
2023-02-11T03:03:24.386Z,96953.00
2023-02-11T03:04:24.341Z,96953.00
2023-02-11T03:05:24.332Z,96953.00
2023-02-11T03:06:24.356Z,96951.00
2023-02-11T03:07:24.337Z,96953.00
2023-02-11T03:08:24.353Z,96951.00
2023-02-11T03:09:24.356Z,96949.00
2023-02-11T03:10:24.337Z,96951.00
2023-02-11T03:11:24.356Z,96951.00
2023-02-11T03:12:24.371Z,96949.00
2023-02-11T03:13:24.353Z,96951.00
2023-02-11T03:14:24.417Z,96949.00
2023-02-11T03:15:24.353Z,96951.00
2023-02-11T03:16:24.421Z,96951.00
2023-02-11T03:17:24.378Z,96953.00
2023-02-11T03:18:24.368Z,96951.00
2023-02-11T03:19:24.372Z,96953.00
2023-02-11T03:20:24.409Z,96953.00
2023-02-11T03:21:24.398Z,96955.00
2023-02-11T03:22:24.395Z,96953.00
2023-02-11T03:23:24.406Z,96957.00
2023-02-11T03:24:24.412Z,96951.00
2023-02-11T03:25:24.383Z,96951.00
2023-02-11T03:26:24.414Z,96949.00
2023-02-11T03:27:24.402Z,96947.00
2023-02-11T03:28:24.467Z,96945.00
2023-02-11T03:29:24.421Z,96941.00
2023-02-11T03:30:24.416Z,96943.00
2023-02-11T03:31:24.638Z,96945.00
2023-02-11T03:32:24.414Z,96941.00
2023-02-11T03:33:24.440Z,96939.00
2023-02-11T03:34:24.439Z,96941.00
2023-02-11T03:35:24.453Z,96937.00
2023-02-11T03:36:24.451Z,96935.00
2023-02-11T03:37:24.449Z,96935.00
2023-02-11T03:38:24.471Z,96939.00
2023-02-11T03:39:24.437Z,96937.00
2023-02-11T03:40:24.443Z,96937.00
2023-02-11T03:41:24.471Z,96935.00
2023-02-11T03:42:24.447Z,96934.00
2023-02-11T03:43:24.463Z,96934.00
2023-02-11T03:44:24.434Z,96934.00
2023-02-11T03:45:24.474Z,96934.00
2023-02-11T03:46:24.485Z,96932.00
2023-02-11T03:47:24.465Z,96932.00
2023-02-11T03:48:24.474Z,96930.00
2023-02-11T03:49:24.485Z,96934.00
2023-02-11T03:50:24.475Z,96934.00
2023-02-11T03:51:24.494Z,96935.00
2023-02-11T03:52:24.491Z,96935.00
2023-02-11T03:53:24.496Z,96935.00
2023-02-11T03:54:24.523Z,96934.00
2023-02-11T03:55:24.504Z,96934.00
2023-02-11T03:56:24.508Z,96932.00
2023-02-11T03:57:24.497Z,96934.00
2023-02-11T03:58:24.552Z,96934.00
2023-02-11T03:59:24.549Z,96930.00
2023-02-11T04:00:24.540Z,96928.00
2023-02-11T04:01:24.601Z,96928.00
2023-02-11T04:02:24.560Z,96930.00
2023-02-11T04:03:24.600Z,96930.00
2023-02-11T04:04:24.568Z,96932.00
2023-02-11T04:05:24.554Z,96934.00
2023-02-11T04:06:24.556Z,96932.00
2023-02-11T04:07:24.580Z,96934.00
2023-02-11T04:08:24.564Z,96935.00
2023-02-11T04:09:24.579Z,96932.00
2023-02-11T04:10:24.582Z,96934.00
2023-02-11T04:12:24.622Z,96935.00
2023-02-11T04:13:24.644Z,96937.00
2023-02-11T04:14:24.680Z,96939.00
2023-02-11T04:15:24.696Z,96935.00
2023-02-11T04:16:24.850Z,96939.00
2023-02-11T04:17:24.769Z,96937.00
2023-02-11T04:18:24.775Z,96937.00
2023-02-11T04:19:24.780Z,96935.00
2023-02-11T04:20:24.784Z,96937.00
2023-02-11T04:21:24.842Z,96939.00
2023-02-11T04:22:24.829Z,96941.00
2023-02-11T04:23:24.857Z,96941.00
2023-02-11T04:24:24.853Z,96943.00
2023-02-11T04:25:24.893Z,96941.00
2023-02-11T04:26:24.926Z,96939.00
2023-02-11T04:27:24.931Z,96939.00
2023-02-11T04:28:24.954Z,96935.00
2023-02-11T04:29:24.993Z,96939.00
2023-02-11T04:30:25.011Z,96941.00
2023-02-11T04:31:25.161Z,96937.00
2023-02-11T04:32:25.072Z,96937.00
2023-02-11T04:33:25.043Z,96935.00
2023-02-11T04:35:25.065Z,96939.00
2023-02-11T04:36:25.151Z,96937.00
2023-02-11T04:37:25.126Z,96937.00
2023-02-11T04:38:25.151Z,96935.00
2023-02-11T04:39:25.168Z,96935.00
2023-02-11T04:41:25.198Z,96937.00
2023-02-11T04:44:25.277Z,96935.00
2023-02-11T04:45:25.281Z,96935.00
2023-02-11T04:46:25.364Z,96934.00
2023-02-11T04:47:25.331Z,96932.00
2023-02-11T04:48:25.362Z,96932.00
2023-02-11T04:49:25.372Z,96934.00
2023-02-11T04:50:25.392Z,96934.00
2023-02-11T04:51:25.409Z,96934.00
2023-02-11T04:52:25.443Z,96934.00
2023-02-11T04:53:25.445Z,96932.00
2023-02-11T04:54:25.494Z,96930.00
2023-02-11T04:55:25.544Z,96930.00
2023-02-11T04:56:25.545Z,96932.00
2023-02-11T04:57:25.563Z,96932.00
2023-02-11T04:58:25.576Z,96930.00
2023-02-11T04:59:25.621Z,96932.00
2023-02-11T05:00:25.605Z,96932.00
2023-02-11T05:01:25.681Z,96930.00
2023-02-11T05:02:25.662Z,96930.00
2023-02-11T05:03:25.656Z,96930.00
2023-02-11T05:04:25.740Z,96930.00
2023-02-11T05:05:25.729Z,96930.00
2023-02-11T05:06:25.731Z,96930.00
2023-02-11T05:07:25.737Z,96930.00
2023-02-11T05:08:25.755Z,96934.00
2023-02-11T05:09:25.781Z,96934.00
2023-02-11T05:10:25.773Z,96934.00
2023-02-11T05:11:25.794Z,96934.00
2023-02-11T05:13:25.841Z,96935.00
2023-02-11T05:29:26.100Z,96949.00
2023-02-11T05:30:26.199Z,96949.00
2023-02-11T05:31:26.134Z,96947.00
2023-02-11T05:32:26.125Z,96951.00
2023-02-11T05:33:26.169Z,96953.00
2023-02-11T05:34:26.137Z,96951.00
2023-02-11T05:35:26.181Z,96951.00
2023-02-11T05:36:26.229Z,96953.00
2023-02-11T05:37:26.259Z,96953.00
2023-02-11T05:38:26.240Z,96955.00
2023-02-11T05:39:26.259Z,96955.00
2023-02-11T05:40:26.252Z,96957.00
2023-02-11T05:41:26.304Z,96959.00
2023-02-11T05:42:26.315Z,96957.00
2023-02-11T05:43:26.342Z,96959.00
2023-02-11T05:44:26.335Z,96959.00
2023-02-11T05:45:26.375Z,96959.00
2023-02-11T05:46:26.469Z,96959.00
2023-02-11T05:47:26.367Z,96963.00
2023-02-11T05:48:26.418Z,96967.00
2023-02-11T05:49:26.430Z,96967.00
2023-02-11T05:50:26.419Z,96967.00
2023-02-11T05:51:26.470Z,96965.00
2023-02-11T05:52:26.482Z,96969.00
2023-02-11T05:53:26.476Z,96967.00
2023-02-11T05:54:26.508Z,96965.00
2023-02-11T05:55:26.513Z,96967.00
2023-02-11T05:56:26.542Z,96965.00
2023-02-11T05:57:26.525Z,96967.00
2023-02-11T05:58:26.531Z,96965.00
2023-02-11T05:59:26.591Z,96963.00
2023-02-11T06:00:26.580Z,96963.00
2023-02-11T06:01:26.683Z,96961.00
2023-02-11T06:02:26.718Z,96965.00
2023-02-11T06:03:26.698Z,96961.00
2023-02-11T06:04:26.629Z,96967.00
2023-02-11T06:05:26.647Z,96965.00
2023-02-11T06:06:26.684Z,96965.00
2023-02-11T06:07:26.679Z,96969.00
2023-02-11T06:08:26.702Z,96969.00
2023-02-11T06:09:26.675Z,96967.00
2023-02-11T06:10:26.746Z,96967.00
2023-02-11T06:11:26.742Z,96965.00
2023-02-11T06:12:26.754Z,96967.00
2023-02-11T06:13:26.793Z,96967.00
2023-02-11T06:14:26.764Z,96965.00
2023-02-11T06:15:26.794Z,96963.00
2023-02-11T06:16:26.863Z,96959.00
2023-02-11T06:17:26.835Z,96957.00
2023-02-11T06:18:26.837Z,96959.00
2023-02-11T06:19:26.830Z,96957.00
2023-02-11T06:20:26.845Z,96961.00
2023-02-11T06:21:42.500Z,96963.00
2023-02-11T06:22:27.857Z,96963.00
2023-02-11T06:23:29.183Z,96967.00
2023-02-11T06:24:48.087Z,96961.00
2023-02-11T06:25:27.838Z,96963.00
2023-02-11T06:26:26.801Z,96965.00
2023-02-11T06:27:26.828Z,96961.00
2023-02-11T06:28:26.903Z,96961.00
2023-02-11T06:29:26.820Z,96969.00
2023-02-11T06:30:26.796Z,96969.00
2023-02-11T06:31:26.896Z,96967.00
2023-02-11T06:32:44.459Z,96965.00
2023-02-11T06:33:27.791Z,96961.00
2023-02-11T06:34:26.753Z,96959.00
2023-02-11T06:35:26.783Z,96961.00
2023-02-11T06:36:26.747Z,96965.00
2023-02-11T06:37:26.753Z,96969.00
2023-02-11T06:38:26.722Z,96967.00
2023-02-11T06:39:27.280Z,96967.00
2023-02-11T06:40:26.694Z,96963.00
2023-02-11T06:41:26.709Z,96961.00
2023-02-11T06:42:26.725Z,96963.00
2023-02-11T06:43:26.675Z,96963.00
2023-02-11T06:44:26.726Z,96963.00
2023-02-11T06:45:26.697Z,96963.00
2023-02-11T06:46:26.789Z,96963.00
2023-02-11T06:47:26.664Z,96959.00
2023-02-11T06:48:26.689Z,96957.00
2023-02-11T06:49:26.640Z,96959.00
2023-02-11T06:50:26.624Z,96959.00
2023-02-11T06:51:26.640Z,96955.00
2023-02-11T06:52:26.662Z,96957.00
2023-02-11T06:53:26.618Z,96959.00
2023-02-11T06:54:26.618Z,96965.00
2023-02-11T06:55:26.620Z,96965.00
2023-02-11T06:56:26.601Z,96963.00
2023-02-11T06:57:26.580Z,96961.00
2023-02-11T06:58:26.557Z,96959.00
2023-02-11T06:59:26.592Z,96961.00
2023-02-11T07:00:27.279Z,96959.00
2023-02-11T07:01:26.604Z,96961.00
2023-02-11T07:02:26.596Z,96963.00
2023-02-11T07:03:26.532Z,96971.00
2023-02-11T07:04:26.535Z,96971.00
2023-02-11T07:05:26.525Z,96973.00
2023-02-11T07:06:26.538Z,96979.00
2023-02-11T07:07:26.536Z,96988.00
2023-02-11T07:08:26.561Z,96979.00
2023-02-11T07:09:26.548Z,96974.00
2023-02-11T07:10:26.556Z,96976.00
2023-02-11T07:11:26.611Z,96973.00
2023-02-11T07:12:26.590Z,96971.00
2023-02-11T07:13:26.613Z,96973.00
2023-02-11T07:14:26.634Z,96971.00
2023-02-11T07:15:26.612Z,96973.00
2023-02-11T07:16:26.733Z,96974.00
2023-02-11T07:17:26.638Z,96973.00
2023-02-11T07:18:26.689Z,96979.00
2023-02-11T07:19:26.680Z,96979.00
2023-02-11T07:20:26.737Z,96979.00
2023-02-11T07:21:26.702Z,96981.00
2023-02-11T07:22:26.689Z,96981.00
2023-02-11T07:23:26.699Z,96988.00
2023-02-11T07:24:26.741Z,96981.00
2023-02-11T07:25:26.741Z,96976.00
2023-02-11T07:26:26.780Z,96973.00
2023-02-11T07:27:26.759Z,96969.00
2023-02-11T07:28:26.822Z,96971.00
2023-02-11T07:29:26.810Z,96971.00
2023-02-11T07:30:26.805Z,96971.00
2023-02-11T07:31:26.949Z,96973.00
2023-02-11T07:32:26.825Z,96971.00
2023-02-11T07:33:26.805Z,96974.00
2023-02-11T07:34:26.813Z,96973.00
2023-02-11T07:35:26.852Z,96971.00
2023-02-11T07:36:26.853Z,96971.00
2023-02-11T07:37:26.846Z,96969.00
2023-02-11T07:38:26.834Z,96969.00
2023-02-11T07:39:26.870Z,96969.00
2023-02-11T07:40:26.908Z,96969.00
2023-02-11T07:41:26.935Z,96969.00
2023-02-11T07:42:26.884Z,96969.00
2023-02-11T07:43:26.911Z,96967.00
2023-02-11T07:44:26.921Z,96967.00
2023-02-11T07:45:26.939Z,96963.00
2023-02-11T07:46:27.063Z,96965.00
2023-02-11T07:47:26.944Z,96965.00
2023-02-11T07:48:26.975Z,96967.00
2023-02-11T07:49:26.991Z,96967.00
2023-02-11T07:50:26.993Z,96965.00
2023-02-11T07:51:27.047Z,96963.00
2023-02-11T07:52:27.780Z,96961.00
2023-02-11T07:53:27.016Z,96957.00
2023-02-11T07:54:27.019Z,96955.00
2023-02-11T07:55:27.050Z,96957.00
2023-02-11T07:56:27.088Z,96957.00
2023-02-11T07:57:27.092Z,96965.00
2023-02-11T07:58:27.115Z,96965.00
2023-02-11T07:59:27.124Z,96967.00
2023-02-11T08:00:27.286Z,96967.00
2023-02-11T08:01:27.164Z,96967.00
2023-02-11T08:02:27.188Z,96965.00
2023-02-11T08:03:27.150Z,96965.00
2023-02-11T08:04:27.160Z,96965.00
2023-02-11T08:05:27.163Z,96963.00
2023-02-11T08:06:27.216Z,96963.00
2023-02-11T08:07:27.204Z,96959.00
2023-02-11T08:08:27.203Z,96957.00
2023-02-11T08:09:27.211Z,96959.00
2023-02-11T08:10:27.322Z,96959.00
2023-02-11T08:11:27.200Z,96963.00
2023-02-11T08:12:27.160Z,96963.00
2023-02-11T08:13:27.193Z,96961.00
2023-02-11T08:14:27.177Z,96961.00
2023-02-11T08:15:27.186Z,96957.00
2023-02-11T08:16:27.280Z,96955.00
2023-02-11T08:17:27.162Z,96951.00
2023-02-11T08:18:27.163Z,96947.00
2023-02-11T08:19:27.169Z,96947.00
2023-02-11T08:20:27.198Z,96945.00
2023-02-11T08:21:27.164Z,96947.00
2023-02-11T08:22:27.170Z,96947.00
2023-02-11T08:23:27.165Z,96947.00
2023-02-11T08:24:27.169Z,96949.00
2023-02-11T08:25:27.115Z,96953.00
2023-02-11T08:26:27.154Z,96953.00
2023-02-11T08:27:27.126Z,96955.00
2023-02-11T08:28:27.155Z,96945.00
2023-02-11T08:29:27.136Z,96941.00
2023-02-11T08:31:27.243Z,96935.00
2023-02-11T08:32:27.106Z,96937.00
2023-02-11T08:33:27.092Z,96941.00
2023-02-11T08:34:27.147Z,96943.00
2023-02-11T08:35:27.122Z,96943.00
2023-02-11T08:36:27.153Z,96947.00
2023-02-11T08:37:27.103Z,96945.00
2023-02-11T08:38:27.140Z,96939.00
2023-02-11T08:39:27.093Z,96937.00
2023-02-11T08:40:27.115Z,96932.00
2023-02-11T08:41:27.114Z,96932.00
2023-02-11T08:42:27.100Z,96935.00
2023-02-11T08:43:27.091Z,96939.00
2023-02-11T08:44:27.105Z,96943.00
2023-02-11T08:45:27.097Z,96945.00
2023-02-11T08:46:27.204Z,96945.00
2023-02-11T08:47:27.122Z,96947.00
2023-02-11T09:20:26.995Z,96930.00
2023-02-11T09:21:27.010Z,96926.00
2023-02-11T09:22:26.984Z,96924.00
2023-02-11T09:23:26.998Z,96924.00
2023-02-11T09:24:26.970Z,96924.00
2023-02-11T09:25:26.975Z,96924.00
2023-02-11T09:26:26.954Z,96922.00
2023-02-11T09:27:26.932Z,96922.00
2023-02-11T09:28:26.955Z,96924.00
2023-02-11T09:29:26.949Z,96928.00
2023-02-11T09:30:27.026Z,96928.00
2023-02-11T09:31:27.145Z,96922.00
2023-02-11T09:32:26.977Z,96920.00
2023-02-11T09:33:26.918Z,96924.00
2023-02-11T09:34:26.905Z,96926.00
2023-02-11T09:35:26.935Z,96920.00
2023-02-11T09:36:26.958Z,96916.00
2023-02-11T09:37:26.950Z,96910.00
2023-02-11T09:38:26.923Z,96910.00
2023-02-11T09:39:26.934Z,96910.00
2023-02-11T09:40:26.962Z,96908.00
2023-02-11T09:41:26.922Z,96908.00
2023-02-11T09:42:26.938Z,96910.00
2023-02-11T09:43:26.929Z,96912.00
2023-02-11T09:44:26.965Z,96910.00
2023-02-11T09:45:26.923Z,96904.00
2023-02-11T09:46:26.960Z,96906.00
2023-02-11T09:47:26.972Z,96904.00
2023-02-11T09:48:26.964Z,96900.00
2023-02-11T09:49:26.922Z,96898.00
2023-02-11T09:50:26.932Z,96904.00
2023-02-11T09:51:26.948Z,96904.00
2023-02-11T09:52:26.912Z,96906.00
2023-02-11T09:53:26.901Z,96912.00
2023-02-11T09:54:26.935Z,96912.00
2023-02-11T09:55:26.894Z,96908.00
2023-02-11T09:56:26.919Z,96906.00
2023-02-11T09:57:29.157Z,96904.00
2023-02-11T09:58:26.912Z,96898.00
2023-02-11T09:59:26.916Z,96900.00
2023-02-11T10:00:26.901Z,96902.00
2023-02-11T10:01:26.932Z,96900.00
2023-02-11T10:02:26.940Z,96900.00
2023-02-11T10:03:26.894Z,96904.00
2023-02-11T10:04:26.981Z,96904.00
2023-02-11T10:05:26.930Z,96898.00
2023-02-11T10:06:26.896Z,96898.00
2023-02-11T10:07:26.966Z,96898.00
2023-02-11T10:08:26.916Z,96896.00
2023-02-11T10:09:26.898Z,96896.00
2023-02-11T10:10:26.909Z,96895.00
2023-02-11T10:11:31.849Z,96893.00
2023-02-11T10:12:27.913Z,96896.00
2023-02-11T10:13:26.908Z,96895.00
2023-02-11T10:14:26.877Z,96895.00
2023-02-11T10:15:26.934Z,96895.00
2023-02-11T10:16:26.882Z,96893.00
2023-02-11T10:17:26.842Z,96895.00
2023-02-11T10:18:26.877Z,96891.00
2023-02-11T10:19:26.892Z,96891.00
2023-02-11T10:20:26.845Z,96891.00
2023-02-11T10:21:26.858Z,96887.00
2023-02-11T10:26:26.816Z,96887.00
2023-02-11T10:27:26.817Z,96885.00
2023-02-11T10:28:26.853Z,96883.00
2023-02-11T10:29:26.809Z,96881.00
2023-02-11T10:30:26.820Z,96879.00
2023-02-11T10:31:26.901Z,96877.00
2023-02-11T10:32:26.799Z,96877.00
2023-02-11T10:33:26.766Z,96877.00
2023-02-11T10:34:26.776Z,96875.00
2023-02-11T10:35:26.740Z,96871.00
2023-02-11T10:36:26.763Z,96871.00
2023-02-11T10:37:26.754Z,96867.00
2023-02-11T10:38:26.725Z,96869.00
2023-02-11T10:39:26.775Z,96871.00
2023-02-11T10:40:26.711Z,96871.00
2023-02-11T10:41:26.717Z,96867.00
2023-02-11T10:42:26.732Z,96865.00
2023-02-11T10:43:26.721Z,96859.00
2023-02-11T10:44:26.704Z,96857.00
2023-02-11T10:45:26.668Z,96857.00
2023-02-11T10:46:26.785Z,96857.00
2023-02-11T10:47:26.651Z,96855.00
2023-02-11T10:48:26.662Z,96851.00
2023-02-11T10:49:26.683Z,96849.00
2023-02-11T10:50:26.647Z,96844.00
2023-02-11T10:51:26.654Z,96844.00
2023-02-11T10:52:26.655Z,96840.00
2023-02-11T10:53:26.608Z,96840.00
2023-02-11T10:54:26.616Z,96840.00
2023-02-11T10:55:26.592Z,96840.00
2023-02-11T10:56:26.625Z,96838.00
2023-02-11T10:57:26.708Z,96838.00
2023-02-11T10:58:26.597Z,96834.00
2023-02-11T10:59:26.567Z,96832.00
2023-02-11T11:00:26.578Z,96828.00
2023-02-11T11:01:26.589Z,96830.00
2023-02-11T11:02:26.569Z,96828.00
2023-02-11T11:03:26.535Z,96826.00
2023-02-11T11:04:26.570Z,96820.00
2023-02-11T11:05:26.542Z,96814.00
2023-02-11T11:06:26.516Z,96814.00
2023-02-11T11:07:26.514Z,96814.00
2023-02-11T11:08:26.575Z,96814.00
2023-02-11T11:09:26.506Z,96814.00
2023-02-11T11:10:26.499Z,96814.00
2023-02-11T11:11:26.544Z,96808.00
2023-02-11T11:12:26.499Z,96806.00
2023-02-11T11:13:26.503Z,96808.00
2023-02-11T11:14:26.501Z,96808.00
2023-02-11T11:15:26.501Z,96808.00
2023-02-11T11:16:26.565Z,96812.00
2023-02-11T11:17:26.517Z,96812.00
2023-02-11T11:18:26.468Z,96808.00
2023-02-11T11:19:26.458Z,96804.00
2023-02-11T11:20:26.473Z,96802.00
2023-02-11T11:21:26.465Z,96804.00
2023-02-11T11:22:26.478Z,96806.00
2023-02-11T11:23:26.461Z,96806.00
2023-02-11T11:24:27.937Z,96806.00
2023-02-11T11:25:27.351Z,96804.00
2023-02-11T11:26:26.450Z,96802.00
2023-02-11T11:27:26.487Z,96802.00
2023-02-11T11:28:26.540Z,96802.00
2023-02-11T11:29:26.429Z,96804.00
2023-02-11T11:30:26.429Z,96802.00
2023-02-11T11:31:26.573Z,96797.00
2023-02-11T11:32:26.434Z,96797.00
2023-02-11T11:33:26.412Z,96793.00
2023-02-11T11:34:26.423Z,96793.00
2023-02-11T11:35:26.443Z,96793.00
2023-02-11T11:36:26.388Z,96793.00
2023-02-11T11:37:26.433Z,96791.00
2023-02-11T11:38:26.418Z,96791.00
2023-02-11T11:39:26.430Z,96785.00
2023-02-11T11:40:26.384Z,96783.00
2023-02-11T11:41:26.394Z,96779.00
2023-02-11T11:42:26.413Z,96775.00
2023-02-11T11:43:26.427Z,96777.00
2023-02-11T11:44:26.388Z,96773.00
2023-02-11T11:45:26.394Z,96771.00
2023-02-11T11:46:26.515Z,96775.00
2023-02-11T11:47:26.395Z,96767.00
2023-02-11T11:48:26.379Z,96769.00
2023-02-11T11:49:26.346Z,96769.00
2023-02-11T11:50:26.357Z,96765.00
2023-02-11T11:51:26.371Z,96769.00
2023-02-11T11:52:26.373Z,96771.00
2023-02-11T11:53:26.330Z,96771.00
2023-02-11T11:54:26.345Z,96765.00
2023-02-11T11:55:26.334Z,96765.00
2023-02-11T11:56:26.348Z,96762.00
2023-02-11T11:57:26.351Z,96758.00
2023-02-11T11:58:26.350Z,96756.00
2023-02-11T11:59:26.378Z,96758.00
2023-02-11T12:00:26.397Z,96756.00
2023-02-11T12:01:26.356Z,96756.00
2023-02-11T12:02:26.406Z,96752.00
2023-02-11T12:03:26.448Z,96748.00
2023-02-11T12:04:26.350Z,96748.00
2023-02-11T12:05:26.294Z,96746.00
2023-02-11T12:06:26.292Z,96744.00
2023-02-11T12:07:26.347Z,96746.00
2023-02-11T12:08:26.302Z,96744.00
2023-02-11T12:09:26.284Z,96742.00
2023-02-11T12:10:26.299Z,96744.00
2023-02-11T12:11:26.301Z,96742.00
2023-02-11T12:12:26.301Z,96740.00
2023-02-11T12:13:26.290Z,96740.00
2023-02-11T12:14:26.313Z,96742.00
2023-02-11T12:15:26.310Z,96744.00
2023-02-11T12:16:26.338Z,96744.00
2023-02-11T12:17:26.282Z,96744.00
2023-02-11T12:18:26.320Z,96740.00
2023-02-11T12:19:26.284Z,96742.00
2023-02-11T12:20:26.314Z,96744.00
2023-02-11T12:21:26.297Z,96742.00
2023-02-11T12:22:26.273Z,96740.00
2023-02-11T12:23:26.275Z,96738.00
2023-02-11T12:24:26.297Z,96740.00
2023-02-11T12:25:26.294Z,96742.00
2023-02-11T12:26:26.299Z,96740.00
2023-02-11T12:27:26.302Z,96740.00
2023-02-11T12:28:26.340Z,96742.00
2023-02-11T12:29:26.313Z,96742.00
2023-02-11T12:30:26.318Z,96736.00
2023-02-11T12:31:26.457Z,96736.00
2023-02-11T12:32:26.300Z,96736.00
2023-02-11T12:33:26.287Z,96736.00
2023-02-11T12:34:26.334Z,96738.00
2023-02-11T12:35:26.311Z,96736.00
2023-02-11T12:36:26.308Z,96734.00
2023-02-11T12:37:26.318Z,96724.00
2023-02-11T12:38:26.299Z,96724.00
2023-02-11T12:39:26.314Z,96724.00
2023-02-11T12:40:26.297Z,96724.00
2023-02-11T12:41:26.290Z,96724.00
2023-02-11T12:42:26.292Z,96724.00